Time;durP1;ratioP1;P1;durP2;ratioP2;P2;SDS_P1;SDS_P2;PMS_P1;PMS_P2;Temp;Humidity;BMP_temperature;BMP_pressure;BME280_temperature;BME280_humidity;BME280_pressure;Samples;Min_cycle;Max_cycle;Signal;HPM_P1;HPM_P2
2022/10/26 00:01:18;;;;;;;13.13;4.03;;;;;;;25.03;100.00;97264.75;6215460;23;20018;-94
2022/10/26 00:04:04;;;;;;;11.68;3.65;;;;;;;25.03;100.00;97270.91;6215807;23;20012;-93
2022/10/26 00:06:30;;;;;;;15.30;3.95;;;;;;;26.08;100.00;97272.81;6214522;23;20008;-94
2022/10/26 00:08:56;;;;;;;11.20;3.47;;;;;;;25.25;100.00;97270.75;6242735;23;20078;-94
2022/10/26 00:11:22;;;;;;;15.00;4.43;;;;;;;24.18;100.00;97272.38;6242774;23;20512;-93
2022/10/26 00:13:48;;;;;;;14.77;4.50;;;;;;;24.62;100.00;97264.91;6215627;23;20023;-93
2022/10/26 00:16:17;;;;;;;17.63;5.03;;;;;;;23.81;100.00;97262.25;6215462;23;20012;-93
2022/10/26 00:18:44;;;;;;;16.63;5.03;;;;;;;25.05;100.00;97260.09;6215620;23;20370;-93
2022/10/26 00:21:10;;;;;;;14.57;4.88;;;;;;;23.60;100.00;97254.31;6216755;23;20066;-94
2022/10/26 00:23:36;;;;;;;15.88;5.40;;;;;;;24.36;100.00;97259.22;6215494;23;20054;-94
2022/10/26 00:26:02;;;;;;;13.68;4.88;;;;;;;25.05;100.00;97249.44;6214893;23;20004;-94
2022/10/26 00:28:28;;;;;;;13.35;5.30;;;;;;;23.92;100.00;97242.72;6217025;23;20016;-94
2022/10/26 00:30:54;;;;;;;14.45;5.43;;;;;;;23.45;100.00;97238.72;6217440;23;20086;-94
2022/10/26 00:33:20;;;;;;;17.50;5.50;;;;;;;23.20;100.00;97234.66;6242710;23;20034;-93
2022/10/26 00:35:53;;;;;;;16.05;5.93;;;;;;;23.56;100.00;97226.28;6215213;23;20046;-95
2022/10/26 00:38:19;;;;;;;17.92;5.70;;;;;;;24.09;100.00;97222.56;6215757;23;20012;-93
2022/10/26 00:40:46;;;;;;;18.30;6.25;;;;;;;23.05;100.00;97207.50;6216723;23;20027;-94
2022/10/26 00:43:20;;;;;;;19.65;6.28;;;;;;;25.03;100.00;97208.75;6216329;23;20008;-93
2022/10/26 00:45:48;;;;;;;18.05;6.47;;;;;;;24.52;100.00;97206.22;6214950;23;20038;-92
2022/10/26 00:48:25;;;;;;;16.48;5.57;;;;;;;25.01;100.00;97202.69;6214411;23;20624;-93
2022/10/26 00:50:53;;;;;;;18.85;5.80;;;;;;;24.30;100.00;97198.47;6216044;23;20008;-94
2022/10/26 00:53:19;;;;;;;16.67;6.05;;;;;;;25.03;100.00;97198.91;6215698;23;20012;-93
2022/10/26 00:55:49;;;;;;;19.90;6.38;;;;;;;24.79;100.00;97198.53;6215536;23;20698;-93
2022/10/26 00:58:16;;;;;;;17.85;6.07;;;;;;;24.65;100.00;97197.16;6214926;23;20023;-93
2022/10/26 01:00:42;;;;;;;15.82;6.50;;;;;;;23.47;100.00;97198.66;6242112;23;20618;-93
2022/10/26 01:03:09;;;;;;;20.40;6.65;;;;;;;24.54;100.00;97193.59;6214840;23;20046;-94
2022/10/26 01:05:39;;;;;;;16.90;6.15;;;;;;;25.13;100.00;97193.53;6216401;23;20054;-93
2022/10/26 01:08:06;;;;;;;17.33;6.10;;;;;;;24.78;100.00;97192.34;6214254;23;20012;-93
2022/10/26 01:10:34;;;;;;;19.60;6.72;;;;;;;25.26;100.00;97181.72;6214932;23;20015;-93
2022/10/26 01:13:01;;;;;;;16.92;5.85;;;;;;;24.59;100.00;97179.84;6241713;23;20011;-94
2022/10/26 01:16:06;;;;;;;16.90;6.63;;;;;;;24.08;100.00;97179.13;6214709;23;20095;-94
2022/10/26 01:18:42;;;;;;;19.00;6.55;;;;;;;24.60;100.00;97170.88;6179376;23;20008;-93
2022/10/26 01:21:41;;;;;;;22.48;6.25;;;;;;;24.80;100.00;97171.72;6215118;23;20012;-93
2022/10/26 01:24:28;;;;;;;16.05;6.85;;;;;;;24.49;100.00;97174.50;6149194;23;20063;-93
2022/10/26 01:27:14;;;;;;;22.98;7.50;;;;;;;24.64;100.00;97171.47;6214905;23;20014;-93
2022/10/26 01:30:07;;;;;;;22.10;6.47;;;;;;;24.39;100.00;97157.69;6214533;23;20030;-93
2022/10/26 01:32:45;;;;;;;22.25;6.53;;;;;;;23.38;100.00;97165.69;6214569;23;20012;-93
2022/10/26 01:35:28;;;;;;;19.88;6.68;;;;;;;23.66;100.00;97164.13;6215886;23;20498;-94
2022/10/26 01:38:03;;;;;;;21.27;6.90;;;;;;;23.80;100.00;97154.06;6214249;23;20090;-94
2022/10/26 01:40:36;;;;;;;18.98;6.40;;;;;;;24.03;100.00;97152.88;6214974;23;20079;-93
2022/10/26 01:43:06;;;;;;;19.42;6.95;;;;;;;23.35;100.00;97150.88;6214979;23;20019;-92
2022/10/26 01:45:34;;;;;;;21.00;7.20;;;;;;;24.50;100.00;97141.56;6213731;23;20012;-94
2022/10/26 01:48:02;;;;;;;20.00;7.10;;;;;;;23.83;100.00;97137.84;6213211;23;20014;-91
2022/10/26 01:50:28;;;;;;;27.20;7.50;;;;;;;24.04;100.00;97135.09;6213537;23;20425;-93
2022/10/26 01:52:54;;;;;;;20.92;7.00;;;;;;;24.88;100.00;97136.34;6241234;23;20087;-91
2022/10/26 01:55:38;;;;;;;18.52;6.60;;;;;;;24.16;100.00;97130.47;6214422;23;20070;-93
2022/10/26 01:58:16;;;;;;;13.55;5.97;;;;;;;24.63;100.00;97143.13;6239001;23;20019;-93
2022/10/26 02:00:51;;;;;;;14.40;6.03;;;;;;;24.22;100.00;97121.94;6239493;22;20018;-92
2022/10/26 02:03:38;;;;;;;17.17;6.70;;;;;;;24.92;100.00;97137.72;6208871;23;20047;-94
2022/10/26 02:06:35;;;;;;;20.15;6.07;;;;;;;24.02;100.00;97137.91;6213954;23;20133;-94
2022/10/26 02:09:00;;;;;;;15.95;6.40;;;;;;;24.82;100.00;97145.75;6162452;23;20057;-94
2022/10/26 02:11:45;;;;;;;20.25;7.00;;;;;;;24.86;100.00;97123.16;6214738;23;20028;-93
2022/10/26 02:14:11;;;;;;;22.48;6.35;;;;;;;24.74;100.00;97118.97;6214671;23;20442;-92
2022/10/26 02:16:52;;;;;;;16.45;6.65;;;;;;;25.45;100.00;97116.81;6214066;23;20126;-93
2022/10/26 02:19:51;;;;;;;16.08;6.05;;;;;;;24.35;100.00;97113.66;6214727;23;20020;-94
2022/10/26 02:22:30;;;;;;;15.50;6.45;;;;;;;25.00;100.00;97116.53;6192233;23;20016;-94
2022/10/26 02:25:00;;;;;;;17.27;5.93;;;;;;;25.09;100.00;97116.63;6213501;23;20015;-93
2022/10/26 02:27:30;;;;;;;16.20;5.85;;;;;;;24.89;100.00;97108.69;6212704;23;20023;-93
2022/10/26 02:29:58;;;;;;;17.52;5.53;;;;;;;24.72;100.00;97102.28;6215310;23;20039;-94
2022/10/26 02:32:27;;;;;;;14.07;5.88;;;;;;;25.46;100.00;97089.13;6214891;23;20415;-94
2022/10/26 02:34:55;;;;;;;20.63;6.45;;;;;;;25.14;100.00;97093.03;6215097;23;20012;-94
2022/10/26 02:37:24;;;;;;;15.95;6.13;;;;;;;25.17;100.00;97093.56;6215160;23;20004;-93
2022/10/26 02:39:51;;;;;;;20.05;5.97;;;;;;;24.64;100.00;97096.84;6215724;23;20024;-94
2022/10/26 02:42:18;;;;;;;14.88;6.25;;;;;;;25.78;100.00;97088.66;6213817;23;20004;-95
2022/10/26 02:44:49;;;;;;;15.52;5.68;;;;;;;24.69;100.00;97099.88;6213959;23;20007;-93
2022/10/26 02:47:15;;;;;;;15.88;5.53;;;;;;;25.09;100.00;97092.63;6214281;23;20004;-93
2022/10/26 02:49:42;;;;;;;13.48;6.00;;;;;;;25.04;100.00;97090.41;6213758;23;20325;-92
2022/10/26 02:52:20;;;;;;;12.88;5.72;;;;;;;26.37;100.00;97093.56;6213558;23;20012;-92
2022/10/26 02:55:02;;;;;;;15.55;5.85;;;;;;;25.98;100.00;97081.31;6239917;23;20027;-94
2022/10/26 02:57:43;;;;;;;17.42;5.90;;;;;;;25.61;100.00;97074.28;6239428;23;20047;-94
2022/10/26 03:00:14;;;;;;;17.35;5.95;;;;;;;23.23;100.00;97072.16;6213424;23;20014;-92
2022/10/26 03:02:50;;;;;;;16.10;5.63;;;;;;;24.39;100.00;97072.44;6212466;23;20086;-93
2022/10/26 03:05:23;;;;;;;11.25;5.15;;;;;;;22.84;100.00;97074.63;6213306;23;20008;-95
2022/10/26 03:07:50;;;;;;;15.55;5.28;;;;;;;23.94;100.00;97059.69;6238485;23;20541;-93
2022/10/26 03:10:16;;;;;;;17.70;5.75;;;;;;;23.95;100.00;97072.88;6212063;23;20083;-93
2022/10/26 03:12:41;;;;;;;14.60;5.40;;;;;;;23.72;100.00;97063.44;6238482;23;20019;-92
2022/10/26 03:15:07;;;;;;;13.48;5.43;;;;;;;24.46;100.00;97049.56;6213869;23;20464;-93
2022/10/26 03:17:33;;;;;;;18.70;5.35;;;;;;;24.02;100.00;97051.84;6214572;23;20070;-93
2022/10/26 03:19:58;;;;;;;14.93;4.68;;;;;;;24.17;100.00;97053.09;6213269;23;20015;-93
2022/10/26 03:22:23;;;;;;;19.35;5.15;;;;;;;24.12;100.00;97050.03;6213632;23;20008;-93
2022/10/26 03:24:51;;;;;;;15.02;5.10;;;;;;;23.92;100.00;97065.16;6214597;23;20398;-94
2022/10/26 03:27:16;;;;;;;12.93;4.55;;;;;;;24.25;100.00;97051.56;6213341;23;20011;-94
2022/10/26 03:29:41;;;;;;;16.55;4.80;;;;;;;24.00;100.00;97061.81;6213290;23;20016;-93
2022/10/26 03:32:07;;;;;;;14.85;4.57;;;;;;;24.46;100.00;97057.53;6213163;23;20007;-93
2022/10/26 03:34:33;;;;;;;13.48;4.78;;;;;;;24.96;100.00;97042.28;6213592;23;20062;-92
2022/10/26 03:36:58;;;;;;;14.63;5.28;;;;;;;24.62;100.00;97054.34;6212745;23;20103;-94
2022/10/26 03:39:23;;;;;;;13.43;4.60;;;;;;;24.11;100.00;97052.84;6240997;23;20015;-92
2022/10/26 03:41:49;;;;;;;15.93;5.05;;;;;;;24.06;100.00;97050.56;6214794;23;20008;-93
2022/10/26 03:44:14;;;;;;;16.83;4.50;;;;;;;24.59;100.00;97059.06;6240773;23;20054;-93
2022/10/26 03:46:40;;;;;;;15.60;4.80;;;;;;;23.35;100.00;97052.44;6242035;23;20058;-93
2022/10/26 03:49:05;;;;;;;12.52;4.28;;;;;;;23.50;100.00;97047.56;6215580;23;20004;-94
2022/10/26 03:51:33;;;;;;;13.70;4.10;;;;;;;24.29;100.00;97055.63;6215427;23;20433;-93
2022/10/26 03:53:59;;;;;;;11.93;4.18;;;;;;;25.32;100.00;97050.41;6241508;23;20334;-94
2022/10/26 03:56:24;;;;;;;13.60;4.80;;;;;;;25.01;100.00;97059.53;6214400;23;20059;-93
2022/10/26 03:58:52;;;;;;;14.27;4.40;;;;;;;25.18;100.00;97052.56;6215764;23;20043;-95
2022/10/26 04:01:17;;;;;;;13.68;3.75;;;;;;;25.13;100.00;97043.34;6214401;23;20020;-93
2022/10/26 04:03:43;;;;;;;10.75;4.15;;;;;;;25.22;100.00;97045.94;6216541;23;20064;-93
2022/10/26 04:06:09;;;;;;;12.63;4.38;;;;;;;25.85;100.00;97035.47;6216169;23;20012;-93
2022/10/26 04:08:34;;;;;;;12.32;3.78;;;;;;;26.21;100.00;97041.66;6215276;23;20000;-93
2022/10/26 04:10:59;;;;;;;16.30;3.70;;;;;;;26.28;100.00;97041.88;6214848;23;20020;-94
2022/10/26 04:13:25;;;;;;;13.10;3.45;;;;;;;25.79;100.00;97039.59;6213901;23;20398;-94
2022/10/26 04:15:50;;;;;;;17.88;3.53;;;;;;;26.79;100.00;97034.03;6215284;23;20104;-93
2022/10/26 04:18:16;;;;;;;13.55;3.50;;;;;;;27.38;100.00;97030.69;6215771;23;20000;-93
2022/10/26 04:20:41;;;;;;;14.25;3.50;;;;;;;27.02;100.00;97039.69;6217229;23;20107;-94
2022/10/26 04:23:10;;;;;;;13.75;3.90;;;;;;;26.51;100.00;97020.81;6215194;23;20086;-94
2022/10/26 04:25:36;;;;;;;11.15;3.72;;;;;;;26.89;100.00;97025.94;6214909;23;20004;-94
2022/10/26 04:28:04;;;;;;;18.80;4.57;;;;;;;26.14;100.00;97024.56;6216024;23;20039;-95
2022/10/26 04:30:30;;;;;;;14.75;4.45;;;;;;;26.30;100.00;97015.81;6215085;23;20426;-94
2022/10/26 04:32:55;;;;;;;12.95;4.18;;;;;;;26.36;100.00;97020.56;6242461;23;20019;-95
2022/10/26 04:35:21;;;;;;;14.02;4.80;;;;;;;27.30;100.00;97025.25;6215346;23;20091;-96
2022/10/26 04:37:46;;;;;;;16.77;4.38;;;;;;;26.12;100.00;97029.22;6216678;23;20082;-93
2022/10/26 04:40:12;;;;;;;14.02;4.18;;;;;;;26.84;100.00;97025.56;6216010;23;20054;-94
2022/10/26 04:42:46;;;;;;;18.67;4.45;;;;;;;26.68;100.00;97023.59;6215806;23;20012;-94
2022/10/26 04:45:13;;;;;;;18.40;4.13;;;;;;;26.74;100.00;97015.81;6215688;23;20067;-94
2022/10/26 04:47:40;;;;;;;12.70;4.20;;;;;;;25.90;100.00;97019.81;6215879;23;20393;-95
2022/10/26 04:50:07;;;;;;;13.82;4.63;;;;;;;26.45;100.00;97024.13;6215119;23;20058;-94
2022/10/26 04:52:34;;;;;;;15.90;4.68;;;;;;;26.55;100.00;97035.53;6214128;23;20014;-93
2022/10/26 04:55:00;;;;;;;17.23;4.35;;;;;;;26.48;100.00;97025.66;6214797;23;20010;-94
2022/10/26 04:57:25;;;;;;;15.73;4.28;;;;;;;27.46;100.00;97037.88;6214785;23;20016;-93
2022/10/26 04:59:51;;;;;;;14.20;3.90;;;;;;;26.97;100.00;97030.47;6215273;23;20081;-94
2022/10/26 05:02:16;;;;;;;10.75;3.67;;;;;;;26.61;100.00;97033.25;6215708;23;20512;-94
2022/10/26 05:04:41;;;;;;;11.65;4.10;;;;;;;26.65;100.00;97024.75;6216555;23;20567;-93
2022/10/26 05:07:07;;;;;;;13.35;4.30;;;;;;;25.53;100.00;97012.81;6215892;23;20015;-96
2022/10/26 05:09:32;;;;;;;16.50;4.00;;;;;;;27.38;100.00;97033.34;6215306;23;20012;-93
2022/10/26 05:11:58;;;;;;;14.48;3.80;;;;;;;27.12;100.00;97028.88;6215540;23;20012;-93
2022/10/26 05:14:23;;;;;;;11.45;3.50;;;;;;;27.18;100.00;97016.69;6215813;23;20089;-94
2022/10/26 05:16:54;;;;;;;8.38;2.95;;;;;;;25.61;100.00;97023.56;6243834;23;20011;-96
2022/10/26 05:19:20;;;;;;;9.95;3.38;;;;;;;26.07;100.00;97026.19;6216449;23;20015;-92
2022/10/26 05:21:45;;;;;;;14.55;3.33;;;;;;;26.15;100.00;97038.75;6242734;23;20004;-93
2022/10/26 05:24:11;;;;;;;13.30;3.47;;;;;;;26.22;100.00;97035.31;6215865;23;20012;-94
2022/10/26 05:26:36;;;;;;;13.32;3.38;;;;;;;26.49;100.00;97044.22;6215721;23;20012;-94
2022/10/26 05:29:02;;;;;;;13.23;2.95;;;;;;;26.43;100.00;97052.00;6216464;23;20000;-95
2022/10/26 05:31:27;;;;;;;11.80;3.00;;;;;;;27.16;100.00;97048.94;6242950;23;20064;-94
2022/10/26 05:33:53;;;;;;;9.35;2.70;;;;;;;26.38;100.00;97060.50;6215755;23;20008;-94
2022/10/26 05:36:18;;;;;;;16.08;3.30;;;;;;;27.55;100.00;97044.94;6217520;23;20012;-93
2022/10/26 05:38:44;;;;;;;8.80;2.83;;;;;;;27.65;100.00;97044.78;6212076;23;20089;-94
2022/10/26 05:41:10;;;;;;;11.88;2.88;;;;;;;25.48;100.00;97044.44;6212402;23;20054;-95
2022/10/26 05:43:35;;;;;;;9.20;2.65;;;;;;;26.90;100.00;97046.31;6210848;23;20018;-94
2022/10/26 05:46:01;;;;;;;8.68;2.47;;;;;;;26.72;100.00;97051.72;6210764;23;20003;-94
2022/10/26 05:48:26;;;;;;;10.15;2.30;;;;;;;26.87;100.00;97055.50;6212165;23;20004;-93
2022/10/26 05:50:51;;;;;;;12.25;2.20;;;;;;;26.99;100.00;97052.56;6212031;23;20579;-94
2022/10/26 05:53:17;;;;;;;10.43;2.63;;;;;;;27.09;100.00;97061.31;6237501;23;20015;-95
2022/10/26 05:55:43;;;;;;;11.90;2.75;;;;;;;26.48;100.00;97049.72;6211884;23;20085;-96
2022/10/26 05:58:14;;;;;;;10.70;2.58;;;;;;;27.12;100.00;97044.91;6211199;23;20478;-94
2022/10/26 06:00:51;;;;;;;11.90;2.10;;;;;;;27.71;100.00;97053.03;6210638;23;20067;-93
2022/10/26 06:03:37;;;;;;;10.45;2.50;;;;;;;28.55;100.00;97063.63;6211834;23;20264;-94
2022/10/26 06:06:02;;;;;;;9.98;2.13;;;;;;;28.51;100.00;97064.97;6238079;23;20070;-95
2022/10/26 06:08:28;;;;;;;8.73;2.25;;;;;;;27.91;100.00;97069.63;6211965;23;20008;-94
2022/10/26 06:10:58;;;;;;;10.40;2.22;;;;;;;27.17;100.00;97066.69;6212349;23;20019;-95
2022/10/26 06:13:24;;;;;;;6.68;1.90;;;;;;;27.10;100.00;97073.69;6212359;23;20003;-95
2022/10/26 06:16:18;;;;;;;10.82;1.95;;;;;;;26.38;100.00;97066.66;6212428;23;20019;-95
2022/10/26 06:18:52;;;;;;;9.30;2.15;;;;;;;26.90;100.00;97070.38;6214318;23;20020;-94
2022/10/26 06:21:37;;;;;;;12.80;2.33;;;;;;;27.43;100.00;97063.13;6242261;23;20043;-94
2022/10/26 06:24:26;;;;;;;12.52;2.38;;;;;;;27.33;100.00;97073.13;6214803;23;20071;-94
2022/10/26 06:27:19;;;;;;;10.60;2.15;;;;;;;27.07;100.00;97071.31;6212673;23;20008;-93
2022/10/26 06:29:59;;;;;;;11.88;2.38;;;;;;;25.22;100.00;97083.31;6241052;23;20004;-94
2022/10/26 06:32:25;;;;;;;8.98;2.03;;;;;;;25.43;100.00;97082.25;6214513;23;20016;-94
2022/10/26 06:35:08;;;;;;;10.75;2.05;;;;;;;25.34;100.00;97067.97;6215743;23;20012;-95
2022/10/26 06:37:34;;;;;;;9.13;2.60;;;;;;;26.42;100.00;97064.53;6191153;23;20008;-95
2022/10/26 06:40:03;;;;;;;13.02;1.92;;;;;;;26.28;100.00;97070.41;6215671;23;20054;-95
2022/10/26 06:42:32;;;;;;;12.32;1.92;;;;;;;25.47;100.00;97067.63;6216303;23;20001;-94
2022/10/26 06:44:59;;;;;;;12.38;2.00;;;;;;;25.80;100.00;97077.81;6216524;23;20095;-93
2022/10/26 06:47:39;;;;;;;12.52;1.92;;;;;;;26.27;100.00;97085.63;6215234;23;20000;-96
2022/10/26 06:50:30;;;;;;;10.60;2.35;;;;;;;26.34;100.00;97080.50;6219675;23;20023;-95
2022/10/26 06:53:20;;;;;;;7.85;1.85;;;;;;;24.57;100.00;97075.19;6218664;23;20038;-93
2022/10/26 06:55:49;;;;;;;10.13;1.98;;;;;;;25.60;100.00;97061.91;6218438;23;20022;-93
2022/10/26 06:58:20;;;;;;;18.40;2.53;;;;;;;24.88;100.00;97083.00;6215976;23;20260;-93
2022/10/26 07:00:49;;;;;;;16.85;2.20;;;;;;;25.56;100.00;97090.72;6216392;23;20000;-95
2022/10/26 07:03:16;;;;;;;9.38;1.92;;;;;;;26.60;100.00;97091.25;6244929;23;20018;-96
2022/10/26 07:05:45;;;;;;;10.60;1.90;;;;;;;25.00;100.00;97089.84;6216625;23;20043;-96
2022/10/26 07:08:11;;;;;;;11.82;2.00;;;;;;;25.63;100.00;97103.50;6218347;23;20083;-94
2022/10/26 07:10:38;;;;;;;10.23;2.10;;;;;;;27.00;100.00;97091.69;6219353;23;20016;-94
2022/10/26 07:13:10;;;;;;;9.35;1.77;;;;;;;26.41;100.00;97113.63;6218037;23;20024;-95
2022/10/26 07:15:36;;;;;;;11.60;2.08;;;;;;;25.95;100.00;97108.34;6217451;23;20027;-95
2022/10/26 07:18:07;;;;;;;7.60;1.90;;;;;;;26.02;100.00;97108.63;6217742;23;20467;-96
2022/10/26 07:20:38;;;;;;;12.75;2.40;;;;;;;25.04;100.00;97111.75;6216429;23;20065;-95
2022/10/26 07:23:05;;;;;;;10.70;1.70;;;;;;;25.80;100.00;97100.00;6212991;23;20602;-94
2022/10/26 07:25:34;;;;;;;8.30;1.70;;;;;;;26.21;100.00;97100.44;6214493;23;20069;-95
2022/10/26 07:27:59;;;;;;;11.35;1.70;;;;;;;26.45;100.00;97104.31;6213513;23;20020;-94
2022/10/26 07:30:27;;;;;;;11.68;1.60;;;;;;;27.28;100.00;97115.56;6214905;23;20015;-95
2022/10/26 07:33:05;;;;;;;10.10;1.90;;;;;;;26.54;100.00;97105.22;6212790;23;20008;-96
2022/10/26 07:35:32;;;;;;;14.40;2.05;;;;;;;27.39;100.00;97107.28;6213457;23;20016;-93
2022/10/26 07:38:01;;;;;;;8.57;1.75;;;;;;;26.54;100.00;97095.38;6211853;23;20009;-96
2022/10/26 07:40:27;;;;;;;12.30;1.70;;;;;;;26.94;100.00;97105.69;6213603;23;20019;-95
2022/10/26 07:42:56;;;;;;;14.18;2.20;;;;;;;26.83;100.00;97101.44;6209218;23;20425;-93
2022/10/26 07:45:22;;;;;;;16.38;2.85;;;;;;;27.35;100.00;97109.47;6209034;23;20007;-94
2022/10/26 07:47:48;;;;;;;13.68;2.08;;;;;;;26.83;100.00;97096.94;6213048;23;20000;-94
2022/10/26 07:50:14;;;;;;;12.52;2.00;;;;;;;27.53;100.00;97093.31;6211692;23;20008;-92
2022/10/26 07:52:40;;;;;;;8.27;1.80;;;;;;;27.25;100.00;97096.16;6211583;23;20506;-94
2022/10/26 07:55:07;;;;;;;13.18;2.05;;;;;;;26.55;100.00;97059.59;6215389;23;20089;-96
2022/10/26 07:57:33;;;;;;;7.80;1.83;;;;;;;26.75;100.00;97070.16;6214428;23;20016;-94
2022/10/26 07:59:59;;;;;;;8.70;1.50;;;;;;;27.76;100.00;97076.63;6214936;23;20023;-96
2022/10/26 08:02:24;;;;;;;10.23;1.85;;;;;;;27.11;100.00;97104.78;6215612;23;20127;-92
2022/10/26 08:04:52;;;;;;;9.02;1.50;;;;;;;27.61;100.00;97126.47;6211321;23;20008;-92
2022/10/26 08:07:19;;;;;;;11.75;1.88;;;;;;;26.73;100.00;97122.94;6211816;23;20008;-92
2022/10/26 08:09:44;;;;;;;15.98;1.67;;;;;;;26.82;100.00;97121.16;6212362;23;20096;-91
2022/10/26 08:12:09;;;;;;;10.07;1.77;;;;;;;26.44;100.00;97133.88;6212489;23;20054;-92
2022/10/26 08:14:35;;;;;;;14.18;1.90;;;;;;;26.08;100.00;97125.88;6213030;23;20008;-94
2022/10/26 08:17:00;;;;;;;12.30;2.38;;;;;;;27.32;100.00;97133.00;6213974;23;20062;-94
2022/10/26 08:19:28;;;;;;;12.15;2.10;;;;;;;27.24;100.00;97148.00;6214540;22;20394;-92
2022/10/26 08:21:56;;;;;;;11.93;1.73;;;;;;;27.23;100.00;97154.34;6211791;23;20081;-92
2022/10/26 08:24:28;;;;;;;14.70;1.70;;;;;;;27.38;100.00;97151.13;6209945;23;20039;-93
2022/10/26 08:26:57;;;;;;;14.32;1.88;;;;;;;27.23;100.00;97169.59;6236057;23;20004;-92
2022/10/26 08:29:25;;;;;;;12.73;1.95;;;;;;;26.39;100.00;97163.75;6211138;23;20008;-92
2022/10/26 08:31:51;;;;;;;9.38;1.80;;;;;;;26.67;100.00;97140.41;6237245;23;20047;-92
2022/10/26 08:34:16;;;;;;;15.07;2.85;;;;;;;26.80;100.00;97182.84;6214647;23;20012;-93
2022/10/26 08:36:42;;;;;;;10.32;2.10;;;;;;;26.90;100.00;97175.56;6212465;23;20018;-93
2022/10/26 08:39:16;;;;;;;14.30;1.85;;;;;;;27.71;100.00;97170.00;6215479;23;20053;-93
2022/10/26 08:41:52;;;;;;;12.73;2.15;;;;;;;26.32;100.00;97171.53;6216729;23;20030;-93
2022/10/26 08:44:36;;;;;;;10.38;2.13;;;;;;;25.50;100.00;97182.09;6216187;23;20055;-95
2022/10/26 08:47:30;;;;;;;11.95;1.80;;;;;;;27.46;100.00;97171.75;6217510;23;20106;-95
2022/10/26 08:50:00;;;;;;;10.48;1.73;;;;;;;26.44;100.00;97190.00;6216636;23;20007;-93
2022/10/26 08:52:45;;;;;;;12.35;2.17;;;;;;;25.51;100.00;97175.78;6217293;23;20072;-94
2022/10/26 08:55:17;;;;;;;10.52;1.45;;;;;;;25.89;100.00;97195.25;6217340;23;20012;-96
2022/10/26 08:57:46;;;;;;;8.45;1.60;;;;;;;26.08;100.00;97184.63;6219610;23;20047;-96
2022/10/26 09:00:23;;;;;;;8.45;1.45;;;;;;;26.21;100.00;97174.44;6227920;23;20020;-96
2022/10/26 09:02:59;;;;;;;13.85;2.03;;;;;;;26.26;100.00;97164.09;6243743;23;20039;-95
2022/10/26 09:05:56;;;;;;;11.77;1.88;;;;;;;27.54;100.00;97175.31;6220432;23;20043;-96
2022/10/26 09:08:45;;;;;;;10.38;1.73;;;;;;;25.85;100.00;97187.69;6223160;23;20097;-96
2022/10/26 09:11:37;;;;;;;9.70;1.83;;;;;;;26.60;100.00;97198.19;6217831;23;20011;-96
2022/10/26 09:14:04;;;;;;;9.60;1.73;;;;;;;26.44;100.00;97209.56;6246389;23;20012;-96
2022/10/26 09:16:42;;;;;;;13.75;1.77;;;;;;;26.43;100.00;97196.34;6219473;23;20015;-96
2022/10/26 09:19:39;;;;;;;9.07;1.67;;;;;;;25.76;100.00;97205.44;6214360;23;20012;-96
2022/10/26 09:22:28;;;;;;;9.70;1.42;;;;;;;26.29;100.00;97187.88;6186804;23;20019;-96
2022/10/26 09:25:03;;;;;;;10.98;1.67;;;;;;;27.22;100.00;97190.16;6189378;23;20008;-96
2022/10/26 09:27:33;;;;;;;9.10;1.60;;;;;;;26.48;100.00;97207.44;6187628;23;20008;-95
2022/10/26 09:30:11;;;;;;;9.77;1.40;;;;;;;27.33;100.00;97220.34;6186014;23;20012;-95
2022/10/26 09:32:45;;;;;;;9.48;1.70;;;;;;;26.87;100.00;97207.13;6185785;23;20087;-96
2022/10/26 09:35:29;;;;;;;7.28;1.30;;;;;;;27.32;100.00;97232.03;6184978;23;20011;-96
2022/10/26 09:38:07;;;;;;;10.05;1.70;;;;;;;26.14;100.00;97226.78;6190729;23;20013;-96
2022/10/26 09:40:45;;;;;;;12.93;1.80;;;;;;;26.11;100.00;97246.63;6192216;23;20023;-92
2022/10/26 09:43:19;;;;;;;8.68;1.88;;;;;;;26.99;100.00;97262.06;6183745;23;20004;-92
2022/10/26 09:46:16;;;;;;;9.57;2.03;;;;;;;26.53;100.00;97238.06;6182154;23;20015;-95
2022/10/26 09:48:52;;;;;;;7.43;1.40;;;;;;;27.01;100.00;97267.25;6205129;23;20018;-94
2022/10/26 09:51:18;;;;;;;10.45;1.65;;;;;;;26.47;100.00;97262.75;6180685;23;20000;-94
2022/10/26 09:53:45;;;;;;;9.20;1.95;;;;;;;26.12;100.00;97258.97;6208818;23;20031;-94
2022/10/26 09:56:12;;;;;;;12.07;1.88;;;;;;;26.81;100.00;97261.25;6183953;23;20016;-94
2022/10/26 09:58:52;;;;;;;10.70;1.70;;;;;;;25.21;100.00;97260.38;6184280;23;20015;-94
2022/10/26 10:01:33;;;;;;;8.60;1.67;;;;;;;26.39;100.00;97262.66;6183700;23;20011;-96
2022/10/26 10:04:18;;;;;;;10.90;1.35;;;;;;;27.10;100.00;97258.31;6184298;23;20020;-95
2022/10/26 10:06:46;;;;;;;11.98;1.80;;;;;;;27.63;100.00;97258.34;6210712;23;20028;-95
2022/10/26 10:09:20;;;;;;;10.02;1.60;;;;;;;26.35;100.00;97267.44;6183889;23;20010;-96
2022/10/26 10:12:02;;;;;;;8.30;1.90;;;;;;;27.61;100.00;97271.06;6184483;23;20012;-96
2022/10/26 10:14:31;;;;;;;9.32;1.88;;;;;;;26.88;100.00;97281.88;6184664;23;20011;-95
2022/10/26 10:17:15;;;;;;;11.88;1.80;;;;;;;28.24;97.25;97292.19;6183162;23;20012;-94
2022/10/26 10:19:44;;;;;;;11.18;1.48;;;;;;;29.14;94.26;97279.13;6183318;23;20029;-94
2022/10/26 10:22:18;;;;;;;11.93;1.83;;;;;;;28.58;95.53;97285.06;6183649;23;20012;-95
2022/10/26 10:25:20;;;;;;;8.73;1.50;;;;;;;29.08;94.73;97278.78;6185689;23;20015;-95
2022/10/26 10:27:53;;;;;;;8.73;1.60;;;;;;;29.14;92.86;97281.81;6211749;23;20040;-94
2022/10/26 10:30:27;;;;;;;10.32;1.50;;;;;;;29.54;91.03;97280.97;6186396;23;20016;-95
2022/10/26 10:33:10;;;;;;;7.95;1.42;;;;;;;29.38;91.73;97289.91;6222281;23;20028;-96
2022/10/26 10:35:39;;;;;;;8.32;1.65;;;;;;;27.42;95.02;97287.19;6194525;23;20084;-96
2022/10/26 10:38:05;;;;;;;6.95;1.50;;;;;;;27.44;96.30;97300.41;6189623;23;20084;-96
2022/10/26 10:40:31;;;;;;;10.25;1.90;;;;;;;27.83;94.34;97301.84;6190825;23;20028;-95
2022/10/26 10:43:11;;;;;;;9.70;1.73;;;;;;;27.63;94.90;97318.13;6192027;23;20012;-96
2022/10/26 10:45:37;;;;;;;7.95;1.70;;;;;;;27.69;97.56;97322.84;6191055;23;20013;-96
2022/10/26 10:48:14;;;;;;;12.10;2.42;;;;;;;26.97;98.31;97320.22;6191063;23;20094;-95
2022/10/26 10:51:04;;;;;;;6.88;1.40;;;;;;;28.05;96.62;97321.91;6215811;23;20004;-94
2022/10/26 10:53:37;;;;;;;9.50;1.58;;;;;;;28.33;93.65;97322.53;6218707;23;20063;-96
2022/10/26 10:56:21;;;;;;;;;;;;;;;27.53;97.12;97320.03;6193074;23;20122;-96
2022/10/26 10:59:05;;;;;;;7.85;1.38;;;;;;;27.92;94.62;97316.97;6191682;23;19912;-95
2022/10/26 11:01:41;;;;;;;6.85;1.20;;;;;;;29.78;92.10;97328.47;6188514;23;20008;-95
2022/10/26 11:04:34;;;;;;;7.75;1.52;;;;;;;28.11;94.27;97326.63;6191137;23;20008;-96
2022/10/26 11:07:05;;;;;;;9.60;1.40;;;;;;;27.57;94.99;97337.47;6188258;23;20021;-95
2022/10/26 11:09:35;;;;;;;7.82;1.30;;;;;;;27.60;93.79;97342.56;6190839;23;20012;-96
2022/10/26 11:12:40;;;;;;;9.85;1.65;;;;;;;24.77;100.00;97345.28;6188615;23;20016;-95
2022/10/26 11:15:13;;;;;;;5.35;1.38;;;;;;;27.87;94.88;97359.47;6185041;23;20412;-95
2022/10/26 11:18:06;;;;;;;7.70;1.30;;;;;;;28.16;94.58;97347.59;6185281;23;20506;-95
2022/10/26 11:20:37;;;;;;;16.80;1.77;;;;;;;27.87;94.19;97343.38;6209379;23;20027;-94
2022/10/26 11:23:20;;;;;;;8.23;1.23;;;;;;;27.84;94.31;97355.25;6239717;23;20157;-94
2022/10/26 11:25:51;;;;;;;12.80;1.70;;;;;;;28.42;93.93;97355.56;6212743;23;20008;-94
2022/10/26 11:28:39;;;;;;;11.32;1.30;;;;;;;27.87;92.22;97348.75;6215154;23;20016;-94
2022/10/26 11:31:11;;;;;;;8.43;1.50;;;;;;;27.34;91.24;97366.56;6215208;23;20008;-95
2022/10/26 11:33:55;;;;;;;9.43;1.50;;;;;;;27.95;91.53;97367.56;6216071;23;20040;-94
2022/10/26 11:36:23;;;;;;;8.35;1.45;;;;;;;27.12;91.46;97367.88;6215620;23;20083;-95
2022/10/26 11:38:55;;;;;;;10.45;1.60;;;;;;;28.09;90.58;97358.13;6214570;23;20012;-95
2022/10/26 11:41:58;;;;;;;10.27;1.40;;;;;;;27.55;90.03;97375.13;6241288;23;20438;-95